Time;durP1;ratioP1;P1;durP2;ratioP2;P2;SDS_P1;SDS_P2;PMS_P1;PMS_P2;Temp;Humidity;BMP_temperature;BMP_pressure;BME280_temperature;BME280_humidity;BME280_pressure;Samples;Min_cycle;Max_cycle;Signal;HPM_P1;HPM_P2
2023/04/30 00:00:46;;;;;;;12.83;8.37;;;5.20;99.90;4.20;100330;;;;579606;244;24062;-78
2023/04/30 00:03:14;;;;;;;9.77;8.17;;;5.20;99.90;4.20;100318;;;;591539;239;24068;-79
2023/04/30 00:05:42;;;;;;;10.30;7.30;;;5.10;99.90;4.20;100317;;;;579887;244;24062;-80
2023/04/30 00:08:10;;;;;;;12.60;7.43;;;5.10;99.90;4.20;100316;;;;588905;243;24061;-79
2023/04/30 00:10:37;;;;;;;9.87;7.67;;;5.10;99.90;4.20;100322;;;;586938;238;24027;-77
2023/04/30 00:13:09;;;;;;;7.97;5.97;;;5.10;99.90;4.10;100324;;;;579865;244;24074;-74
2023/04/30 00:15:35;;;;;;;14.43;6.50;;;5.00;99.90;4.10;100331;;;;589289;244;24075;-80
2023/04/30 00:18:06;;;;;;;11.27;6.67;;;5.00;99.90;4.00;100335;;;;591923;239;24044;-77
2023/04/30 00:20:30;;;;;;;12.30;7.17;;;4.90;99.90;3.90;100343;;;;580848;242;24123;-79
2023/04/30 00:22:58;;;;;;;11.03;6.67;;;4.90;99.90;3.80;100337;;;;590274;243;24064;-77
2023/04/30 00:25:28;;;;;;;10.73;6.87;;;4.80;99.90;3.70;100337;;;;592490;239;23998;-78
2023/04/30 00:27:56;;;;;;;9.27;6.07;;;4.70;99.90;3.60;100347;;;;580388;243;24116;-79
2023/04/30 00:30:24;;;;;;;8.47;6.50;;;4.40;99.90;3.60;100347;;;;579425;248;24093;-77
2023/04/30 00:32:52;;;;;;;9.57;6.10;;;4.50;99.90;3.50;100351;;;;577886;244;24072;-79
2023/04/30 00:35:20;;;;;;;15.13;6.97;;;4.50;99.90;3.40;100353;;;;581516;243;24060;-78
2023/04/30 00:37:48;;;;;;;13.03;5.90;;;4.40;99.90;3.40;100354;;;;591255;243;24092;-80
2023/04/30 00:40:18;;;;;;;8.07;5.80;;;4.30;99.90;3.30;100347;;;;581763;241;24053;-80
2023/04/30 00:42:47;;;;;;;7.43;5.65;;;4.30;99.90;3.30;100357;;;;582145;243;35149;-78
2023/04/30 00:45:16;;;;;;;6.70;3.63;;;4.30;99.90;3.30;100357;;;;586809;243;25154;-77
2023/04/30 00:47:42;;;;;;;9.40;5.30;;;4.20;99.90;3.20;100354;;;;581328;244;25096;-77
2023/04/30 00:50:14;;;;;;;14.43;7.30;;;4.20;99.90;3.20;100353;;;;581311;242;24122;-74
2023/04/30 00:52:39;;;;;;;14.53;6.77;;;4.10;99.90;3.20;100350;;;;581436;244;24031;-77
2023/04/30 00:55:07;;;;;;;8.50;6.00;;;4.10;99.90;3.10;100354;;;;581364;244;24089;-82
2023/04/30 00:57:39;;;;;;;10.53;5.50;;;4.10;99.90;3.10;100348;;;;590598;243;24137;-82
2023/04/30 01:00:07;;;;;;;9.83;4.93;;;4.10;99.90;3.10;100349;;;;580276;244;24088;-82
2023/04/30 01:02:31;;;;;;;8.63;5.33;;;4.10;99.90;3.00;100348;;;;580273;244;24077;-80
2023/04/30 01:04:59;;;;;;;7.93;4.87;;;4.10;99.90;3.00;100351;;;;579792;244;24065;-79
2023/04/30 01:07:27;;;;;;;10.80;4.70;;;4.00;99.90;3.10;100349;;;;579869;243;24123;-78
2023/04/30 01:09:58;;;;;;;12.20;6.53;;;4.00;99.90;3.10;100355;;;;589141;243;24167;-79
2023/04/30 01:12:31;;;;;;;6.40;4.73;;;4.00;99.90;3.00;100356;;;;589298;242;24100;-76
2023/04/30 01:15:43;;;;;;;8.50;4.80;;;3.90;99.90;3.00;100364;;;;580674;244;24147;-76
2023/04/30 01:18:16;;;;;;;16.00;4.73;;;3.90;99.90;2.90;100368;;;;580778;244;24123;-77
2023/04/30 01:20:51;;;;;;;6.60;4.17;;;3.90;99.90;3.00;100364;;;;586086;244;24061;-76
2023/04/30 01:23:52;;;;;;;8.13;4.63;;;3.90;99.90;2.90;100371;;;;579697;243;24101;-77
2023/04/30 01:26:21;;;;;;;6.87;4.40;;;3.90;99.90;2.80;100367;;;;580750;244;24080;-76
2023/04/30 01:28:52;;;;;;;13.13;4.57;;;3.80;99.90;2.80;100371;;;;585807;244;24136;-76
2023/04/30 01:31:19;;;;;;;7.83;4.17;;;3.80;99.90;2.80;100373;;;;579814;244;24076;-76
2023/04/30 01:33:47;;;;;;;7.80;4.30;;;3.80;99.90;2.90;100377;;;;586097;244;24059;-76
2023/04/30 01:36:36;;;;;;;8.97;4.37;;;3.80;99.90;2.90;100368;;;;580499;243;24099;-74
2023/04/30 01:39:31;;;;;;;7.07;4.20;;;3.80;99.90;2.80;100366;;;;590461;242;24121;-76
2023/04/30 01:42:17;;;;;;;7.37;3.73;;;3.80;99.90;2.80;100382;;;;589696;242;24108;-77
2023/04/30 01:45:03;;;;;;;7.70;3.90;;;3.80;99.90;2.80;100387;;;;589383;244;24121;-75
2023/04/30 01:47:34;;;;;;;14.43;4.13;;;3.80;99.90;2.70;100390;;;;590699;242;24091;-78
2023/04/30 01:50:10;;;;;;;8.77;3.80;;;3.70;99.90;2.70;100376;;;;581329;243;24091;-75
2023/04/30 01:52:47;;;;;;;7.40;3.67;;;3.70;99.90;2.70;100392;;;;590994;242;24162;-79
2023/04/30 01:55:17;;;;;;;10.60;3.90;;;3.70;99.90;2.70;100393;;;;590632;243;24241;-76
2023/04/30 01:57:45;;;;;;;8.67;3.37;;;3.70;99.90;2.70;100394;;;;581137;244;24111;-76
2023/04/30 02:00:16;;;;;;;9.47;3.57;;;3.60;99.90;2.60;100395;;;;586389;244;24119;-78
2023/04/30 02:02:41;;;;;;;8.33;3.70;;;3.60;99.90;2.50;100395;;;;581005;244;24057;-79
2023/04/30 02:05:09;;;;;;;8.30;3.40;;;3.50;99.90;2.50;100384;;;;588510;244;24098;-79
2023/04/30 02:07:40;;;;;;;9.07;2.70;;;3.50;99.90;2.50;100391;;;;580069;244;35217;-79
2023/04/30 02:10:13;;;;;;;6.63;2.10;;;3.50;99.90;2.50;100402;;;;586582;244;24074;-76
2023/04/30 02:12:41;;;;;;;8.43;2.83;;;3.50;99.90;2.50;100392;;;;590769;243;24080;-78
2023/04/30 02:15:13;;;;;;;11.30;4.50;;;3.50;99.90;2.50;100413;;;;580924;242;24067;-79
2023/04/30 02:17:38;;;;;;;6.27;3.87;;;3.50;99.90;2.50;100406;;;;590334;243;24068;-76
2023/04/30 02:20:10;;;;;;;7.10;4.00;;;3.50;99.90;2.50;100406;;;;580606;243;25283;-76
2023/04/30 02:22:34;;;;;;;14.37;3.53;;;3.50;99.90;2.50;100407;;;;580712;244;24114;-76
2023/04/30 02:25:02;;;;;;;6.83;3.27;;;3.50;99.90;2.50;100404;;;;580552;244;24050;-76
2023/04/30 02:27:30;;;;;;;5.80;3.07;;;3.40;99.90;2.40;100408;;;;589073;241;24089;-77
2023/04/30 02:29:58;;;;;;;10.13;3.43;;;3.40;99.90;2.40;100412;;;;580283;244;24093;-77
2023/04/30 02:32:29;;;;;;;8.30;3.67;;;3.40;99.90;2.30;100406;;;;580411;244;24117;-77
2023/04/30 02:34:54;;;;;;;15.65;4.72;;;3.30;99.90;2.30;100414;;;;583807;242;35180;-76
2023/04/30 02:37:25;;;;;;;6.70;2.53;;;3.30;99.90;2.30;100407;;;;579514;244;24095;-76
2023/04/30 02:39:50;;;;;;;7.63;3.17;;;3.30;99.90;2.20;100411;;;;579254;244;24065;-78
2023/04/30 02:42:18;;;;;;;9.57;3.37;;;3.30;99.90;2.20;100418;;;;580734;244;24055;-76
2023/04/30 02:44:46;;;;;;;9.07;3.27;;;3.20;99.90;2.20;100410;;;;580520;243;25185;-76
2023/04/30 02:47:14;;;;;;;8.17;3.40;;;3.20;99.90;2.10;100421;;;;580489;243;24062;-77
2023/04/30 02:49:42;;;;;;;6.13;3.57;;;3.20;99.90;2.10;100422;;;;590219;243;24076;-76
2023/04/30 02:52:10;;;;;;;9.33;3.30;;;3.10;99.90;2.10;100425;;;;581068;244;24029;-79
2023/04/30 02:54:37;;;;;;;10.13;4.10;;;3.10;99.90;2.10;100424;;;;581134;244;24092;-77
2023/04/30 02:57:06;;;;;;;10.17;3.90;;;3.10;99.90;2.00;100431;;;;581147;239;24031;-78
2023/04/30 02:59:34;;;;;;;5.60;3.53;;;3.10;99.90;2.00;100419;;;;591254;239;24047;-76
2023/04/30 03:02:02;;;;;;;8.33;3.50;;;3.00;99.90;2.00;100425;;;;582113;243;24068;-76
2023/04/30 03:04:30;;;;;;;7.70;3.40;;;3.00;99.90;2.00;100433;;;;581416;243;24071;-76
2023/04/30 03:06:59;;;;;;;10.30;3.67;;;3.00;99.90;1.90;100430;;;;581206;243;24072;-76
2023/04/30 03:09:26;;;;;;;7.30;3.57;;;2.90;99.90;1.90;100431;;;;581029;242;24109;-76
2023/04/30 03:11:54;;;;;;;14.07;4.17;;;2.90;99.90;2.00;100428;;;;580938;243;24078;-76
2023/04/30 03:14:22;;;;;;;9.53;3.80;;;2.90;99.90;2.00;100433;;;;581121;244;25097;-77
2023/04/30 03:16:50;;;;;;;12.57;3.87;;;3.00;99.90;2.00;100435;;;;589624;242;24067;-77
2023/04/30 03:19:20;;;;;;;9.00;3.30;;;3.00;99.90;2.00;100434;;;;590071;241;24101;-77
2023/04/30 03:21:46;;;;;;;7.30;3.80;;;3.00;99.90;2.00;100436;;;;580650;244;24061;-77
2023/04/30 03:24:13;;;;;;;6.47;2.83;;;3.00;99.90;2.00;100432;;;;580764;243;24055;-80
2023/04/30 03:26:42;;;;;;;7.50;3.30;;;3.00;99.90;2.10;100428;;;;580803;244;24043;-79
2023/04/30 03:29:11;;;;;;;9.03;3.33;;;3.00;99.90;2.20;100437;;;;580732;242;24066;-79
2023/04/30 03:31:40;;;;;;;6.37;3.40;;;3.10;99.90;2.20;100440;;;;589985;242;24083;-77
2023/04/30 03:34:10;;;;;;;14.67;4.00;;;3.10;99.90;2.20;100454;;;;580924;242;24071;-77
2023/04/30 03:36:37;;;;;;;13.60;4.30;;;3.10;99.90;2.30;100447;;;;583790;244;24144;-77
2023/04/30 03:39:08;;;;;;;8.83;3.60;;;3.20;99.90;2.30;100455;;;;580934;244;24058;-77
2023/04/30 03:41:33;;;;;;;9.63;3.37;;;3.20;99.90;2.40;100453;;;;586709;244;24079;-77
2023/04/30 03:44:04;;;;;;;9.20;3.37;;;3.30;99.90;2.40;100452;;;;580968;244;24069;-78
2023/04/30 03:46:29;;;;;;;10.60;2.93;;;3.30;99.90;2.50;100464;;;;589632;242;24146;-76
2023/04/30 03:48:58;;;;;;;13.80;3.20;;;3.40;99.90;2.60;100456;;;;580986;242;24093;-75
2023/04/30 03:51:26;;;;;;;7.00;3.10;;;3.50;99.90;2.70;100468;;;;580581;244;24128;-77
2023/04/30 03:53:53;;;;;;;7.70;3.30;;;3.50;99.90;2.70;100471;;;;580695;244;24067;-79
2023/04/30 03:56:24;;;;;;;8.33;3.33;;;3.60;99.90;2.80;100481;;;;580716;244;24065;-80
2023/04/30 03:58:49;;;;;;;7.63;3.40;;;3.60;99.90;2.80;100480;;;;579944;244;24093;-79
2023/04/30 04:01:17;;;;;;;6.60;3.07;;;3.70;99.90;2.90;100484;;;;580116;242;24091;-78
2023/04/30 04:03:45;;;;;;;8.67;2.43;;;3.80;99.90;3.00;100477;;;;590005;243;24094;-78
2023/04/30 04:06:13;;;;;;;9.33;2.83;;;3.80;99.90;3.00;100476;;;;580699;243;24070;-77
2023/04/30 04:08:42;;;;;;;12.73;3.60;;;4.00;99.90;3.10;100475;;;;580700;244;24127;-77
2023/04/30 04:11:13;;;;;;;12.50;3.10;;;3.90;99.90;3.20;100481;;;;581765;243;24058;-78
2023/04/30 04:13:39;;;;;;;7.40;2.67;;;4.00;99.90;3.30;100488;;;;581302;243;24096;-80
2023/04/30 04:16:10;;;;;;;3.60;2.00;;;4.10;99.90;3.70;100488;;;;581465;239;24139;-78
2023/04/30 04:18:35;;;;;;;5.03;2.00;;;4.50;99.90;4.90;100500;;;;588671;239;24136;-76
2023/04/30 04:21:06;;;;;;;9.30;1.77;;;5.60;99.90;6.60;100500;;;;591541;239;24058;-76
2023/04/30 04:23:30;;;;;;;3.87;1.93;;;7.20;99.90;8.10;100506;;;;591696;239;24042;-77
2023/04/30 04:25:59;;;;;;;2.97;1.67;;;8.90;99.90;9.50;100507;;;;591035;239;24089;-81
2023/04/30 04:28:26;;;;;;;9.23;2.47;;;10.30;99.90;10.50;100510;;;;591114;239;24041;-78
2023/04/30 04:30:54;;;;;;;5.47;2.03;;;11.40;99.90;11.60;100512;;;;590978;239;24062;-77
2023/04/30 04:33:25;;;;;;;6.07;2.30;;;12.50;99.90;12.40;100518;;;;591249;239;24045;-81
2023/04/30 04:35:50;;;;;;;5.00;1.77;;;13.40;99.90;13.30;100517;;;;600395;239;24111;-81
2023/04/30 04:38:18;;;;;;;6.90;2.37;;;14.30;99.90;13.80;100527;;;;576231;242;24109;-79
2023/04/30 04:40:53;;;;;;;4.63;1.87;;;14.90;99.90;14.50;100531;;;;601522;239;24036;-79
2023/04/30 04:43:21;;;;;;;8.13;2.73;;;15.50;99.90;15.40;100536;;;;578667;245;24106;-78
2023/04/30 04:45:49;;;;;;;4.93;2.00;;;16.50;98.70;16.30;100542;;;;580235;244;24057;-83
2023/04/30 04:48:20;;;;;;;4.57;2.13;;;17.30;96.00;17.10;100543;;;;601328;238;24022;-82
2023/04/30 04:50:44;;;;;;;9.63;2.20;;;18.10;92.80;17.70;100550;;;;578357;245;24074;-79
2023/04/30 04:53:16;;;;;;;7.50;2.37;;;19.00;83.90;17.90;100550;;;;590918;239;24056;-80
2023/04/30 04:55:42;;;;;;;6.97;2.20;;;19.30;81.20;18.30;100557;;;;588010;244;23074;-77
2023/04/30 04:58:10;;;;;;;6.83;2.67;;;19.60;79.80;18.50;100553;;;;600332;238;23104;-80
2023/04/30 05:00:39;;;;;;;8.20;2.60;;;20.10;76.70;19.00;100567;;;;574444;245;23161;-80
2023/04/30 05:03:08;;;;;;;5.43;1.87;;;20.00;75.90;19.00;100567;;;;590301;239;23049;-78
2023/04/30 05:05:35;;;;;;;3.93;2.33;;;20.10;73.70;19.40;100566;;;;590255;239;24105;-77
2023/04/30 05:08:03;;;;;;;5.00;2.27;;;20.40;72.90;19.70;100572;;;;590365;239;24021;-76
2023/04/30 05:10:31;;;;;;;6.50;2.60;;;20.70;71.50;20.30;100569;;;;590622;239;24071;-80
2023/04/30 05:12:59;;;;;;;7.80;2.43;;;21.20;70.70;21.20;100578;;;;590546;239;24031;-77
2023/04/30 05:15:27;;;;;;;5.83;2.40;;;22.00;68.10;21.90;100577;;;;590206;239;24052;-79
2023/04/30 05:17:55;;;;;;;6.33;2.73;;;22.70;65.00;22.50;100594;;;;590479;239;24020;-82
2023/04/30 05:20:23;;;;;;;4.57;2.10;;;24.00;60.50;23.10;100595;;;;590591;239;23046;-80
2023/04/30 05:22:51;;;;;;;7.03;2.33;;;23.90;60.30;23.30;100602;;;;595886;240;23050;-83
2023/04/30 05:25:19;;;;;;;5.27;2.20;;;24.20;58.00;22.80;100607;;;;591501;239;24093;-79
2023/04/30 05:27:47;;;;;;;6.97;2.80;;;23.80;57.40;22.60;100608;;;;580811;243;23063;-82
2023/04/30 05:30:15;;;;;;;4.93;2.37;;;23.70;58.30;23.40;100603;;;;591881;237;24061;-81
2023/04/30 05:32:49;;;;;;;5.67;2.47;;;24.20;57.60;24.00;100615;;;;591565;239;23044;-80
2023/04/30 05:35:11;;;;;;;5.27;2.80;;;24.80;56.30;24.50;100623;;;;592069;239;24047;-80
2023/04/30 05:37:39;;;;;;;8.47;2.90;;;25.20;55.50;25.00;100633;;;;592362;239;23090;-78
2023/04/30 05:40:07;;;;;;;5.60;2.20;;;25.80;53.70;25.40;100630;;;;591329;239;23031;-77
2023/04/30 05:42:37;;;;;;;6.77;2.37;;;26.10;53.10;25.60;100642;;;;591491;239;23046;-80
2023/04/30 05:45:04;;;;;;;5.60;2.30;;;26.60;51.50;25.90;100640;;;;591863;239;23072;-77
2023/04/30 05:47:31;;;;;;;5.07;2.50;;;26.60;51.50;26.00;100647;;;;589962;243;23093;-80
2023/04/30 05:49:59;;;;;;;5.12;2.67;;;26.90;51.10;26.30;100654;;;;587972;239;23100;-81
2023/04/30 05:52:27;;;;;;;4.57;2.50;;;27.10;50.80;27.10;100658;;;;591293;239;23038;-80
2023/04/30 05:54:55;;;;;;;5.97;3.08;;;27.70;50.30;27.60;100659;;;;594740;241;23111;-80
2023/04/30 05:57:23;;;;;;;5.97;2.58;;;28.20;48.50;28.00;100662;;;;591648;239;23062;-76
2023/04/30 05:59:52;;;;;;;4.03;2.12;;;28.70;47.90;28.10;100672;;;;576433;243;23049;-77
2023/04/30 06:02:19;;;;;;;7.93;2.83;;;28.80;47.10;28.50;100670;;;;601476;239;23093;-77
2023/04/30 06:04:51;;;;;;;4.37;2.67;;;29.20;46.90;29.10;100664;;;;575630;245;24091;-81
2023/04/30 06:07:15;;;;;;;5.00;2.42;;;29.70;46.20;29.80;100677;;;;591504;239;23045;-81
2023/04/30 06:09:43;;;;;;;9.48;2.87;;;30.40;45.10;29.90;100686;;;;591486;239;23065;-80
2023/04/30 06:12:11;;;;;;;7.30;2.97;;;30.60;44.10;29.70;100688;;;;591727;239;23131;-78
2023/04/30 06:14:42;;;;;;;4.03;2.58;;;30.60;44.00;30.00;100700;;;;589948;243;24171;-79
2023/04/30 06:17:10;;;;;;;6.93;2.85;;;30.70;43.50;30.20;100699;;;;590854;239;24113;-80
2023/04/30 06:19:37;;;;;;;4.87;2.50;;;30.80;43.20;29.90;100701;;;;599929;239;23051;-80
2023/04/30 06:22:02;;;;;;;4.35;2.40;;;30.70;42.90;29.60;100694;;;;594160;239;23075;-80
2023/04/30 06:24:30;;;;;;;5.97;2.45;;;30.50;42.80;30.00;100702;;;;594966;239;24073;-78
2023/04/30 06:26:58;;;;;;;5.55;2.65;;;30.60;43.30;30.60;100704;;;;594857;239;24111;-80
2023/04/30 06:29:27;;;;;;;6.93;2.75;;;31.00;42.30;30.30;100715;;;;594318;239;23021;-81
2023/04/30 06:31:55;;;;;;;4.90;2.90;;;31.00;41.60;29.90;100705;;;;590677;239;23110;-78
2023/04/30 06:34:23;;;;;;;8.05;3.00;;;30.70;41.80;30.20;100710;;;;592060;239;24049;-82
2023/04/30 06:36:51;;;;;;;9.10;2.35;;;30.70;42.20;30.30;100718;;;;592136;239;23039;-81
2023/04/30 06:39:19;;;;;;;9.30;2.80;;;30.90;42.10;31.00;100720;;;;592177;239;23073;-81
2023/04/30 06:41:47;;;;;;;5.43;2.50;;;31.40;41.60;31.30;100722;;;;592014;239;23045;-81
2023/04/30 06:44:16;;;;;;;3.03;2.25;;;31.70;40.50;31.10;100712;;;;592040;239;23086;-81
2023/04/30 06:46:43;;;;;;;2.97;2.22;;;31.70;40.50;31.60;100730;;;;591891;239;23076;-80
2023/04/30 06:49:11;;;;;;;8.57;2.28;;;32.00;39.90;30.80;100717;;;;592053;239;23036;-81
2023/04/30 06:51:39;;;;;;;7.65;2.53;;;31.60;39.70;30.60;100727;;;;591795;239;23075;-80
2023/04/30 06:54:07;;;;;;;4.28;2.25;;;31.40;40.10;31.20;100721;;;;590864;239;23104;-79
2023/04/30 06:56:39;;;;;;;5.93;2.45;;;31.70;39.70;31.20;100726;;;;590730;239;24081;-79
2023/04/30 06:59:04;;;;;;;4.53;2.92;;;32.00;39.60;31.60;100736;;;;590616;239;23059;-79
2023/04/30 07:01:32;;;;;;;3.90;2.75;;;32.00;39.50;32.00;100735;;;;591181;239;23047;-80
2023/04/30 07:04:00;;;;;;;4.47;2.72;;;32.40;39.20;32.10;100742;;;;590806;241;23099;-79
2023/04/30 07:06:27;;;;;;;4.35;2.35;;;32.60;38.90;32.90;100740;;;;576344;239;23045;-80
2023/04/30 07:08:56;;;;;;;4.32;2.60;;;33.30;38.50;33.40;100728;;;;589040;243;23087;-79
2023/04/30 07:11:24;;;;;;;3.67;2.28;;;34.10;36.90;33.60;100736;;;;588828;243;24070;-81
2023/04/30 07:13:53;;;;;;;7.18;2.50;;;34.30;36.50;33.90;100751;;;;582630;243;24046;-80
2023/04/30 07:16:21;;;;;;;3.75;1.95;;;34.20;36.30;33.50;100751;;;;584328;242;23061;-79
2023/04/30 07:18:49;;;;;;;5.87;2.35;;;34.10;36.20;33.20;100754;;;;593266;242;23065;-80
2023/04/30 07:21:17;;;;;;;3.03;2.12;;;33.80;36.20;33.10;100758;;;;584380;242;23043;-80
2023/04/30 07:23:45;;;;;;;4.12;2.37;;;33.70;36.70;33.60;100757;;;;584701;242;24098;-80
2023/04/30 07:26:13;;;;;;;5.03;2.47;;;34.00;36.70;34.20;100764;;;;584214;242;23051;-79
2023/04/30 07:28:42;;;;;;;3.72;2.15;;;34.50;36.00;34.70;100769;;;;581794;246;23109;-82
2023/04/30 07:31:10;;;;;;;3.22;2.65;;;35.00;35.70;35.00;100780;;;;590461;239;23391;-81
2023/04/30 07:33:41;;;;;;;4.28;1.98;;;35.30;35.20;34.00;100781;;;;579570;244;23115;-82
2023/04/30 07:36:10;;;;;;;2.72;1.92;;;34.70;34.50;33.30;100777;;;;580749;241;24058;-81
2023/04/30 07:38:38;;;;;;;3.72;1.73;;;34.10;35.40;33.20;100766;;;;577312;244;23115;-81
2023/04/30 07:41:08;;;;;;;6.18;2.35;;;33.70;35.40;33.20;100774;;;;596903;239;23044;-81
2023/04/30 07:43:38;;;;;;;4.90;2.67;;;33.70;35.40;33.60;100769;;;;589466;239;23099;-81
2023/04/30 07:46:02;;;;;;;5.25;2.20;;;34.00;35.70;34.20;100773;;;;578309;241;23044;-81
2023/04/30 07:48:33;;;;;;;3.75;2.45;;;34.60;35.40;34.30;100794;;;;579794;241;23003;-82
2023/04/30 07:50:58;;;;;;;5.80;2.50;;;34.80;34.70;32.80;100779;;;;582335;240;23037;-81
2023/04/30 07:53:26;;;;;;;2.12;1.52;;;33.80;34.40;32.60;100787;;;;580004;239;23139;-80
2023/04/30 07:55:54;;;;;;;6.37;1.95;;;33.30;35.30;31.90;100784;;;;580915;244;23149;-81
2023/04/30 07:58:22;;;;;;;6.28;2.72;;;32.70;35.80;31.50;100787;;;;583804;244;23193;-83
2023/04/30 08:00:50;;;;;;;4.25;2.10;;;32.30;36.20;30.40;100792;;;;600929;237;23038;-83
2023/04/30 08:03:22;;;;;;;4.47;2.35;;;31.30;36.70;29.10;100792;;;;580908;244;23056;-81
2023/04/30 08:05:46;;;;;;;7.65;2.65;;;30.30;37.00;27.60;100791;;;;591099;239;23064;-79
2023/04/30 08:08:22;;;;;;;4.55;2.28;;;28.70;38.40;28.50;100797;;;;591622;239;23080;-78
2023/04/30 08:10:46;;;;;;;7.28;2.03;;;28.90;38.10;29.00;100803;;;;591387;239;23053;-76
2023/04/30 08:13:14;;;;;;;4.35;1.67;;;29.40;37.50;29.10;100800;;;;589199;243;23072;-79
2023/04/30 08:15:45;;;;;;;4.93;1.92;;;29.50;37.90;29.70;100803;;;;588260;239;23067;-81
2023/04/30 08:18:10;;;;;;;4.18;1.60;;;30.10;37.00;28.30;100800;;;;590505;239;23033;-79
2023/04/30 08:20:38;;;;;;;5.70;2.15;;;29.40;36.60;26.20;100807;;;;579993;240;23039;-80
2023/04/30 08:23:06;;;;;;;4.70;1.45;;;27.50;39.90;26.80;100801;;;;591062;239;23048;-78
2023/04/30 08:25:34;;;;;;;5.60;2.00;;;27.40;39.80;28.30;100811;;;;593147;239;24074;-78
2023/04/30 08:28:02;;;;;;;3.40;1.75;;;28.60;39.30;30.20;100812;;;;590516;239;23094;-80
2023/04/30 08:30:30;;;;;;;3.47;2.10;;;30.20;37.80;31.80;100812;;;;587158;242;24083;-80
2023/04/30 08:32:58;;;;;;;3.65;1.70;;;31.90;36.70;33.10;100821;;;;585196;242;23067;-80
2023/04/30 08:35:28;;;;;;;2.10;1.37;;;33.50;34.30;32.10;100826;;;;585560;242;23048;-77
2023/04/30 08:37:55;;;;;;;3.67;1.70;;;33.30;33.40;31.30;100831;;;;584872;242;24089;-78
2023/04/30 08:40:27;;;;;;;2.90;1.65;;;31.30;33.80;29.80;100830;;;;584805;242;23062;-78
2023/04/30 08:42:58;;;;;;;4.40;1.77;;;30.20;35.60;29.10;100825;;;;593745;242;23055;-80
2023/04/30 08:45:26;;;;;;;1.60;1.50;;;30.20;35.50;28.70;100830;;;;582119;242;23060;-79
2023/04/30 08:47:58;;;;;;;2.10;1.58;;;29.70;36.50;27.80;100834;;;;588699;239;24064;-78
2023/04/30 08:50:22;;;;;;;3.70;1.62;;;28.90;37.10;26.60;100836;;;;578962;241;23076;-79
2023/04/30 08:52:50;;;;;;;3.92;1.90;;;27.90;37.30;25.50;100843;;;;583047;243;23046;-80
2023/04/30 08:55:18;;;;;;;6.07;1.52;;;26.60;38.50;26.80;100846;;;;590740;239;24140;-79
2023/04/30 08:57:48;;;;;;;4.25;1.65;;;27.20;39.60;29.50;100850;;;;570919;244;35053;-80
2023/04/30 09:00:14;;;;;;;4.78;1.65;;;31.60;36.10;31.50;100850;;;;588853;243;23097;-80
2023/04/30 09:02:45;;;;;;;6.00;1.75;;;31.50;36.00;30.00;100851;;;;600914;238;23035;-81
2023/04/30 09:05:10;;;;;;;5.32;1.85;;;31.40;34.30;27.90;100851;;;;577891;244;23097;-80
2023/04/30 09:07:44;;;;;;;9.48;2.50;;;29.70;36.50;29.00;100845;;;;590138;239;24097;-79
2023/04/30 09:10:18;;;;;;;3.12;1.40;;;29.70;36.50;30.70;100845;;;;589230;243;23123;-81
2023/04/30 09:13:00;;;;;;;5.12;1.55;;;32.70;34.60;32.30;100846;;;;578446;241;24120;-80
2023/04/30 09:15:27;;;;;;;4.80;1.92;;;32.60;34.50;33.50;100862;;;;576712;244;23079;-80
2023/04/30 09:18:16;;;;;;;4.20;1.60;;;34.00;34.00;32.50;100860;;;;576654;249;23095;-80
2023/04/30 09:20:56;;;;;;;3.90;1.65;;;32.70;33.20;31.40;100859;;;;580313;244;23077;-79
2023/04/30 09:23:27;;;;;;;9.35;3.08;;;32.70;33.20;31.00;100862;;;;566449;250;23126;-79
2023/04/30 09:25:55;;;;;;;3.42;2.67;;;32.40;33.90;30.10;100865;;;;576186;246;23092;-78
2023/04/30 09:28:24;;;;;;;4.62;2.78;;;31.60;34.70;28.00;100878;;;;580377;244;23085;-79
2023/04/30 09:30:51;;;;;;;5.03;1.95;;;29.90;35.50;25.50;100873;;;;588975;243;23142;-77
2023/04/30 09:33:19;;;;;;;7.97;2.35;;;27.70;36.80;24.10;100863;;;;588515;243;24040;-78
2023/04/30 09:35:46;;;;;;;6.50;1.77;;;25.80;39.20;24.00;100873;;;;579326;244;23123;-76
2023/04/30 09:38:33;;;;;;;4.47;3.33;;;25.20;40.40;24.80;100871;;;;576404;244;23117;-78
2023/04/30 09:41:01;;;;;;;5.60;1.52;;;25.30;40.80;26.00;100867;;;;579057;244;23102;-79
2023/04/30 09:43:29;;;;;;;7.60;2.20;;;26.70;39.30;25.90;100879;;;;579390;244;23073;-77
2023/04/30 09:46:01;;;;;;;5.10;1.73;;;26.20;40.20;25.20;100861;;;;588280;243;23076;-78
2023/04/30 09:48:30;;;;;;;4.47;1.67;;;26.50;40.40;25.80;100872;;;;575627;244;23081;-80
2023/04/30 09:51:00;;;;;;;3.05;1.40;;;26.50;39.50;27.00;100871;;;;579351;244;23077;-82
2023/04/30 09:53:30;;;;;;;3.90;1.70;;;29.80;35.80;29.40;100875;;;;575914;244;23077;-81
2023/04/30 09:55:54;;;;;;;2.17;1.40;;;29.70;35.70;30.60;100862;;;;576180;244;23139;-79
2023/04/30 09:58:25;;;;;;;3.47;2.30;;;31.40;35.20;32.50;100877;;;;576183;244;23141;-82
2023/04/30 10:00:50;;;;;;;14.02;2.50;;;33.50;34.00;33.30;100880;;;;575520;244;23072;-81
2023/04/30 10:03:18;;;;;;;3.97;1.60;;;34.60;31.00;34.20;100882;;;;576229;244;23120;-79
2023/04/30 10:05:49;;;;;;;3.03;1.58;;;35.70;30.60;33.40;100879;;;;588102;244;23100;-78
2023/04/30 10:08:41;;;;;;;2.15;1.42;;;35.50;30.00;32.10;100869;;;;579814;243;24094;-81
2023/04/30 10:11:12;;;;;;;2.60;1.75;;;34.30;31.20;32.30;100868;;;;580985;243;23071;-80
2023/04/30 10:14:07;;;;;;;4.30;1.58;;;34.00;30.70;32.40;100892;;;;588605;243;23086;-78
2023/04/30 10:16:41;;;;;;;3.45;1.40;;;34.00;30.70;31.70;100876;;;;579967;243;23086;-82
2023/04/30 10:19:14;;;;;;;2.53;1.58;;;33.30;30.70;30.60;100871;;;;577213;244;24107;-82
2023/04/30 10:21:42;;;;;;;2.17;1.58;;;32.40;31.30;30.50;100882;;;;579722;244;23104;-81
2023/04/30 10:24:10;;;;;;;7.57;2.00;;;32.00;32.40;28.50;100875;;;;579617;244;23087;-79
2023/04/30 10:26:39;;;;;;;2.42;1.50;;;28.90;34.30;26.80;100876;;;;588959;244;24095;-81
2023/04/30 10:29:08;;;;;;;7.65;2.05;;;27.30;36.20;25.20;100877;;;;588660;244;23076;-81
2023/04/30 10:31:36;;;;;;;6.87;1.67;;;27.20;35.40;24.30;100887;;;;576237;244;23090;-81
2023/04/30 10:34:34;;;;;;;2.70;1.27;;;25.30;37.60;23.70;100874;;;;579191;244;23074;-80
2023/04/30 10:37:17;;;;;;;3.17;1.37;;;25.20;37.50;22.50;100869;;;;576347;244;23060;-81
2023/04/30 10:39:49;;;;;;;4.40;1.50;;;23.20;39.20;21.80;100866;;;;575351;244;24100;-81
2023/04/30 10:42:14;;;;;;;2.23;1.17;;;23.10;39.10;21.00;100882;;;;585182;244;24115;-78
2023/04/30 10:44:45;;;;;;;3.70;1.43;;;22.20;40.10;20.20;100866;;;;579756;244;24054;-80
2023/04/30 10:47:13;;;;;;;3.23;2.53;;;21.20;41.50;19.00;100878;;;;575801;244;24133;-82
2023/04/30 10:49:37;;;;;;;1.80;1.03;;;20.10;41.90;17.80;100872;;;;575808;244;24096;-80
2023/04/30 10:52:05;;;;;;;3.10;2.17;;;18.80;43.60;16.70;100869;;;;576195;244;24177;-79
2023/04/30 10:54:33;;;;;;;2.00;1.80;;;17.70;45.40;16.10;100865;;;;579247;244;24073;-78
2023/04/30 10:57:11;;;;;;;1.53;1.10;;;16.90;47.90;15.50;100854;;;;588619;242;24088;-80
2023/04/30 10:59:38;;;;;;;5.93;1.73;;;16.20;49.00;15.10;100859;;;;579381;244;24086;-79
2023/04/30 11:02:08;;;;;;;8.20;2.07;;;15.70;50.80;14.70;100864;;;;579529;244;24073;-77
2023/04/30 11:04:36;;;;;;;4.80;1.77;;;15.30;51.50;14.40;100857;;;;579436;244;24196;-79
2023/04/30 11:07:10;;;;;;;1.63;1.10;;;15.00;52.70;14.20;100871;;;;579563;244;24060;-77
2023/04/30 11:09:41;;;;;;;5.97;1.03;;;14.70;52.90;13.90;100861;;;;579380;244;24115;-80
2023/04/30 11:12:14;;;;;;;3.10;1.07;;;14.40;52.40;13.60;100862;;;;576614;244;24100;-78
2023/04/30 11:14:48;;;;;;;2.07;0.90;;;14.20;52.00;13.40;100860;;;;579612;244;24119;-79
2023/04/30 11:17:15;;;;;;;3.00;1.20;;;13.90;53.20;13.10;100844;;;;576049;244;24063;-81
2023/04/30 11:19:47;;;;;;;4.90;1.30;;;13.70;53.70;13.00;100837;;;;579586;243;25186;-79
2023/04/30 11:22:21;;;;;;;6.23;2.00;;;13.60;54.40;12.90;100853;;;;577392;243;24055;-81
2023/04/30 11:25:10;;;;;;;3.37;1.00;;;13.50;56.10;12.80;100854;;;;579947;243;24074;-78